sensor_id;sensor_type;location;lat;lon;timestamp;P1;durP1;ratioP1;P2;durP2;ratioP2
11247;SDS011;5681;53.316;13.950;2024-01-10T00:00:01;55.30;;;13.50;;
11247;SDS011;5681;53.316;13.950;2024-01-10T00:02:28;58.50;;;11.80;;
11247;SDS011;5681;53.316;13.950;2024-01-10T00:04:55;77.30;;;14.33;;
11247;SDS011;5681;53.316;13.950;2024-01-10T00:07:22;142.80;;;13.87;;
11247;SDS011;5681;53.316;13.950;2024-01-10T00:09:49;120.77;;;14.50;;
11247;SDS011;5681;53.316;13.950;2024-01-10T00:12:16;30.33;;;12.30;;
11247;SDS011;5681;53.316;13.950;2024-01-10T00:14:42;60.30;;;13.57;;
11247;SDS011;5681;53.316;13.950;2024-01-10T00:17:09;321.17;;;19.93;;
11247;SDS011;5681;53.316;13.950;2024-01-10T00:19:35;48.37;;;11.90;;
11247;SDS011;5681;53.316;13.950;2024-01-10T00:22:01;40.93;;;14.20;;
11247;SDS011;5681;53.316;13.950;2024-01-10T00:24:28;62.20;;;15.00;;
11247;SDS011;5681;53.316;13.950;2024-01-10T00:26:56;55.50;;;13.00;;
11247;SDS011;5681;53.316;13.950;2024-01-10T00:29:22;151.27;;;17.30;;
11247;SDS011;5681;53.316;13.950;2024-01-10T00:31:48;149.40;;;16.13;;
11247;SDS011;5681;53.316;13.950;2024-01-10T00:34:17;30.17;;;11.53;;
11247;SDS011;5681;53.316;13.950;2024-01-10T00:36:44;26.23;;;11.20;;
11247;SDS011;5681;53.316;13.950;2024-01-10T00:39:10;63.50;;;11.73;;
11247;SDS011;5681;53.316;13.950;2024-01-10T00:41:36;59.37;;;11.83;;
11247;SDS011;5681;53.316;13.950;2024-01-10T00:44:04;107.03;;;14.40;;
11247;SDS011;5681;53.316;13.950;2024-01-10T00:46:30;93.60;;;13.37;;
11247;SDS011;5681;53.316;13.950;2024-01-10T00:48:57;110.70;;;13.13;;
11247;SDS011;5681;53.316;13.950;2024-01-10T00:51:23;146.60;;;12.13;;
11247;SDS011;5681;53.316;13.950;2024-01-10T00:53:50;137.70;;;13.03;;
11247;SDS011;5681;53.316;13.950;2024-01-10T00:56:16;25.17;;;8.80;;
11247;SDS011;5681;53.316;13.950;2024-01-10T00:58:44;143.27;;;12.77;;
11247;SDS011;5681;53.316;13.950;2024-01-10T01:01:12;128.87;;;12.50;;
11247;SDS011;5681;53.316;13.950;2024-01-10T01:03:38;33.90;;;9.77;;
11247;SDS011;5681;53.316;13.950;2024-01-10T01:06:05;46.60;;;10.47;;
11247;SDS011;5681;53.316;13.950;2024-01-10T01:08:31;143.53;;;13.83;;
11247;SDS011;5681;53.316;13.950;2024-01-10T01:10:58;121.43;;;12.57;;
11247;SDS011;5681;53.316;13.950;2024-01-10T01:13:24;145.00;;;13.33;;
11247;SDS011;5681;53.316;13.950;2024-01-10T01:15:50;82.07;;;11.07;;
11247;SDS011;5681;53.316;13.950;2024-01-10T01:18:19;26.10;;;10.27;;
11247;SDS011;5681;53.316;13.950;2024-01-10T01:20:45;129.10;;;15.63;;
11247;SDS011;5681;53.316;13.950;2024-01-10T01:23:13;95.37;;;15.00;;
11247;SDS011;5681;53.316;13.950;2024-01-10T01:25:40;107.97;;;13.47;;
11247;SDS011;5681;53.316;13.950;2024-01-10T01:28:06;145.43;;;15.17;;
11247;SDS011;5681;53.316;13.950;2024-01-10T01:30:33;21.67;;;10.73;;
11247;SDS011;5681;53.316;13.950;2024-01-10T01:33:00;102.27;;;14.03;;
11247;SDS011;5681;53.316;13.950;2024-01-10T01:35:30;124.43;;;16.87;;
11247;SDS011;5681;53.316;13.950;2024-01-10T01:37:56;35.13;;;14.13;;
11247;SDS011;5681;53.316;13.950;2024-01-10T01:40:23;55.80;;;14.33;;
11247;SDS011;5681;53.316;13.950;2024-01-10T01:42:49;34.40;;;14.00;;
11247;SDS011;5681;53.316;13.950;2024-01-10T01:45:15;59.60;;;14.67;;
11247;SDS011;5681;53.316;13.950;2024-01-10T01:47:42;32.33;;;14.13;;
11247;SDS011;5681;53.316;13.950;2024-01-10T01:50:09;55.97;;;15.70;;
11247;SDS011;5681;53.316;13.950;2024-01-10T01:52:36;32.47;;;14.93;;
11247;SDS011;5681;53.316;13.950;2024-01-10T01:55:03;50.83;;;16.00;;
11247;SDS011;5681;53.316;13.950;2024-01-10T01:57:31;36.13;;;15.73;;
11247;SDS011;5681;53.316;13.950;2024-01-10T01:59:58;48.57;;;14.40;;
11247;SDS011;5681;53.316;13.950;2024-01-10T02:02:24;34.13;;;14.57;;
11247;SDS011;5681;53.316;13.950;2024-01-10T02:04:51;36.03;;;15.53;;
11247;SDS011;5681;53.316;13.950;2024-01-10T02:07:17;52.97;;;17.17;;
11247;SDS011;5681;53.316;13.950;2024-01-10T02:09:45;59.57;;;17.00;;
11247;SDS011;5681;53.316;13.950;2024-01-10T02:12:11;36.93;;;16.30;;
11247;SDS011;5681;53.316;13.950;2024-01-10T02:14:37;45.77;;;15.53;;
11247;SDS011;5681;53.316;13.950;2024-01-10T02:17:04;26.43;;;13.17;;
11247;SDS011;5681;53.316;13.950;2024-01-10T02:19:30;42.87;;;14.17;;
11247;SDS011;5681;53.316;13.950;2024-01-10T02:21:57;29.27;;;14.60;;
11247;SDS011;5681;53.316;13.950;2024-01-10T02:24:23;25.23;;;12.40;;
11247;SDS011;5681;53.316;13.950;2024-01-10T02:26:51;25.07;;;12.10;;
11247;SDS011;5681;53.316;13.950;2024-01-10T02:29:18;49.27;;;11.03;;
11247;SDS011;5681;53.316;13.950;2024-01-10T02:31:44;30.50;;;10.33;;
11247;SDS011;5681;53.316;13.950;2024-01-10T02:34:10;24.83;;;10.33;;
11247;SDS011;5681;53.316;13.950;2024-01-10T02:36:37;25.17;;;10.23;;
11247;SDS011;5681;53.316;13.950;2024-01-10T02:39:15;42.53;;;11.17;;
11247;SDS011;5681;53.316;13.950;2024-01-10T02:41:41;14.53;;;9.80;;
11247;SDS011;5681;53.316;13.950;2024-01-10T02:44:09;36.73;;;10.03;;
11247;SDS011;5681;53.316;13.950;2024-01-10T02:46:35;37.03;;;10.60;;
11247;SDS011;5681;53.316;13.950;2024-01-10T02:49:02;62.90;;;11.23;;
11247;SDS011;5681;53.316;13.950;2024-01-10T02:51:28;35.87;;;10.27;;
11247;SDS011;5681;53.316;13.950;2024-01-10T02:53:55;48.40;;;11.30;;
11247;SDS011;5681;53.316;13.950;2024-01-10T02:56:21;22.70;;;9.30;;
11247;SDS011;5681;53.316;13.950;2024-01-10T02:58:47;13.53;;;8.47;;
11247;SDS011;5681;53.316;13.950;2024-01-10T03:01:15;57.67;;;10.90;;
11247;SDS011;5681;53.316;13.950;2024-01-10T03:03:42;47.77;;;10.53;;
11247;SDS011;5681;53.316;13.950;2024-01-10T03:06:08;55.97;;;9.07;;
11247;SDS011;5681;53.316;13.950;2024-01-10T03:08:34;34.93;;;10.23;;
11247;SDS011;5681;53.316;13.950;2024-01-10T03:11:01;87.43;;;11.23;;
11247;SDS011;5681;53.316;13.950;2024-01-10T03:13:27;48.13;;;9.63;;
11247;SDS011;5681;53.316;13.950;2024-01-10T03:15:54;94.73;;;10.63;;
11247;SDS011;5681;53.316;13.950;2024-01-10T03:18:22;17.47;;;8.67;;
11247;SDS011;5681;53.316;13.950;2024-01-10T03:20:49;36.23;;;10.70;;
11247;SDS011;5681;53.316;13.950;2024-01-10T03:23:15;41.53;;;9.60;;
11247;SDS011;5681;53.316;13.950;2024-01-10T03:25:42;42.47;;;9.93;;
11247;SDS011;5681;53.316;13.950;2024-01-10T03:28:08;37.00;;;8.80;;
11247;SDS011;5681;53.316;13.950;2024-01-10T03:30:34;76.63;;;10.67;;
11247;SDS011;5681;53.316;13.950;2024-01-10T03:33:01;21.70;;;9.47;;
11247;SDS011;5681;53.316;13.950;2024-01-10T03:35:29;190.47;;;12.50;;
11247;SDS011;5681;53.316;13.950;2024-01-10T03:37:55;94.70;;;10.33;;
11247;SDS011;5681;53.316;13.950;2024-01-10T03:40:21;60.00;;;11.00;;
11247;SDS011;5681;53.316;13.950;2024-01-10T03:42:48;13.00;;;8.23;;
11247;SDS011;5681;53.316;13.950;2024-01-10T03:45:15;15.17;;;9.07;;
11247;SDS011;5681;53.316;13.950;2024-01-10T03:47:44;23.03;;;10.50;;
11247;SDS011;5681;53.316;13.950;2024-01-10T03:50:14;113.60;;;12.57;;
11247;SDS011;5681;53.316;13.950;2024-01-10T03:52:43;59.00;;;10.07;;
11247;SDS011;5681;53.316;13.950;2024-01-10T03:55:09;126.33;;;12.53;;
11247;SDS011;5681;53.316;13.950;2024-01-10T03:57:37;17.07;;;8.67;;
11247;SDS011;5681;53.316;13.950;2024-01-10T04:00:04;73.70;;;10.53;;
11247;SDS011;5681;53.316;13.950;2024-01-10T04:02:31;143.20;;;14.97;;
11247;SDS011;5681;53.316;13.950;2024-01-10T04:04:58;178.93;;;13.80;;
11247;SDS011;5681;53.316;13.950;2024-01-10T04:07:25;15.93;;;8.00;;
11247;SDS011;5681;53.316;13.950;2024-01-10T04:09:54;116.23;;;12.27;;
11247;SDS011;5681;53.316;13.950;2024-01-10T04:12:20;61.77;;;11.33;;
11247;SDS011;5681;53.316;13.950;2024-01-10T04:14:47;123.97;;;11.47;;
11247;SDS011;5681;53.316;13.950;2024-01-10T04:17:13;122.10;;;13.13;;
11247;SDS011;5681;53.316;13.950;2024-01-10T04:19:39;10.90;;;7.43;;
11247;SDS011;5681;53.316;13.950;2024-01-10T04:22:06;14.63;;;7.80;;
11247;SDS011;5681;53.316;13.950;2024-01-10T04:24:32;25.10;;;8.97;;
11247;SDS011;5681;53.316;13.950;2024-01-10T04:27:00;57.13;;;10.07;;
11247;SDS011;5681;53.316;13.950;2024-01-10T04:29:26;61.63;;;8.63;;
11247;SDS011;5681;53.316;13.950;2024-01-10T04:31:53;102.93;;;11.70;;
11247;SDS011;5681;53.316;13.950;2024-01-10T04:34:19;23.97;;;7.53;;
11247;SDS011;5681;53.316;13.950;2024-01-10T04:36:47;78.93;;;10.40;;
11247;SDS011;5681;53.316;13.950;2024-01-10T04:39:14;64.33;;;9.07;;
11247;SDS011;5681;53.316;13.950;2024-01-10T04:41:40;21.30;;;7.03;;
11247;SDS011;5681;53.316;13.950;2024-01-10T04:44:08;66.13;;;10.10;;
11247;SDS011;5681;53.316;13.950;2024-01-10T04:46:34;40.27;;;8.90;;
11247;SDS011;5681;53.316;13.950;2024-01-10T04:49:01;13.73;;;7.90;;
11247;SDS011;5681;53.316;13.950;2024-01-10T04:51:27;85.70;;;11.37;;
11247;SDS011;5681;53.316;13.950;2024-01-10T04:53:53;94.77;;;9.70;;
11247;SDS011;5681;53.316;13.950;2024-01-10T04:56:20;60.00;;;9.07;;
11247;SDS011;5681;53.316;13.950;2024-01-10T04:58:47;25.87;;;8.03;;
11247;SDS011;5681;53.316;13.950;2024-01-10T05:01:14;150.90;;;11.37;;
11247;SDS011;5681;53.316;13.950;2024-01-10T05:03:41;48.57;;;8.67;;
11247;SDS011;5681;53.316;13.950;2024-01-10T05:06:07;11.97;;;8.03;;
11247;SDS011;5681;53.316;13.950;2024-01-10T05:08:34;19.83;;;8.10;;
11247;SDS011;5681;53.316;13.950;2024-01-10T05:11:00;16.43;;;8.37;;
11247;SDS011;5681;53.316;13.950;2024-01-10T05:13:27;90.60;;;11.73;;
11247;SDS011;5681;53.316;13.950;2024-01-10T05:15:53;13.97;;;8.43;;
11247;SDS011;5681;53.316;13.950;2024-01-10T05:18:21;25.57;;;7.97;;
11247;SDS011;5681;53.316;13.950;2024-01-10T05:20:47;12.57;;;7.77;;
11247;SDS011;5681;53.316;13.950;2024-01-10T05:23:15;15.30;;;8.70;;
11247;SDS011;5681;53.316;13.950;2024-01-10T05:25:41;22.50;;;9.90;;
11247;SDS011;5681;53.316;13.950;2024-01-10T05:28:08;134.27;;;11.83;;
11247;SDS011;5681;53.316;13.950;2024-01-10T05:30:34;21.77;;;7.90;;
11247;SDS011;5681;53.316;13.950;2024-01-10T05:33:01;77.13;;;11.27;;
11247;SDS011;5681;53.316;13.950;2024-01-10T05:35:28;26.13;;;7.67;;
11247;SDS011;5681;53.316;13.950;2024-01-10T05:37:55;212.03;;;15.73;;
11247;SDS011;5681;53.316;13.950;2024-01-10T05:40:21;44.23;;;8.53;;
11247;SDS011;5681;53.316;13.950;2024-01-10T05:42:47;12.40;;;7.43;;
11247;SDS011;5681;53.316;13.950;2024-01-10T05:45:16;20.03;;;9.10;;
11247;SDS011;5681;53.316;13.950;2024-01-10T05:47:43;171.30;;;13.53;;
11247;SDS011;5681;53.316;13.950;2024-01-10T05:50:09;17.10;;;7.47;;
11247;SDS011;5681;53.316;13.950;2024-01-10T05:52:37;20.07;;;9.47;;
11247;SDS011;5681;53.316;13.950;2024-01-10T05:55:04;32.53;;;9.00;;
11247;SDS011;5681;53.316;13.950;2024-01-10T05:57:33;22.20;;;9.20;;
11247;SDS011;5681;53.316;13.950;2024-01-10T06:00:00;18.33;;;9.40;;
11247;SDS011;5681;53.316;13.950;2024-01-10T06:02:26;21.87;;;9.80;;
11247;SDS011;5681;53.316;13.950;2024-01-10T06:04:53;15.90;;;9.53;;
11247;SDS011;5681;53.316;13.950;2024-01-10T06:07:19;23.47;;;10.53;;
11247;SDS011;5681;53.316;13.950;2024-01-10T06:09:48;21.07;;;8.73;;
11247;SDS011;5681;53.316;13.950;2024-01-10T06:12:14;16.00;;;9.13;;
11247;SDS011;5681;53.316;13.950;2024-01-10T06:14:40;17.53;;;9.30;;
11247;SDS011;5681;53.316;13.950;2024-01-10T06:17:07;17.03;;;9.20;;
11247;SDS011;5681;53.316;13.950;2024-01-10T06:19:33;17.27;;;9.30;;
11247;SDS011;5681;53.316;13.950;2024-01-10T06:21:59;15.57;;;8.60;;
11247;SDS011;5681;53.316;13.950;2024-01-10T06:24:26;12.80;;;7.97;;
11247;SDS011;5681;53.316;13.950;2024-01-10T06:26:54;13.60;;;8.37;;
11247;SDS011;5681;53.316;13.950;2024-01-10T06:29:20;17.17;;;9.17;;
11247;SDS011;5681;53.316;13.950;2024-01-10T06:31:46;20.43;;;8.80;;
11247;SDS011;5681;53.316;13.950;2024-01-10T06:34:13;18.03;;;8.57;;
11247;SDS011;5681;53.316;13.950;2024-01-10T06:36:39;27.03;;;8.70;;
11247;SDS011;5681;53.316;13.950;2024-01-10T06:39:06;14.00;;;8.23;;
11247;SDS011;5681;53.316;13.950;2024-01-10T06:41:37;18.07;;;8.00;;
11247;SDS011;5681;53.316;13.950;2024-01-10T06:44:05;25.87;;;8.93;;
11247;SDS011;5681;53.316;13.950;2024-01-10T06:46:31;16.30;;;8.97;;
11247;SDS011;5681;53.316;13.950;2024-01-10T06:48:58;45.70;;;10.47;;
11247;SDS011;5681;53.316;13.950;2024-01-10T06:51:25;12.97;;;7.80;;
11247;SDS011;5681;53.316;13.950;2024-01-10T06:53:51;42.33;;;10.20;;
11247;SDS011;5681;53.316;13.950;2024-01-10T06:56:18;20.20;;;8.70;;
11247;SDS011;5681;53.316;13.950;2024-01-10T06:58:44;29.87;;;9.03;;
11247;SDS011;5681;53.316;13.950;2024-01-10T07:01:12;133.67;;;12.30;;
11247;SDS011;5681;53.316;13.950;2024-01-10T07:03:39;15.00;;;8.77;;
11247;SDS011;5681;53.316;13.950;2024-01-10T07:06:05;19.00;;;10.20;;
11247;SDS011;5681;53.316;13.950;2024-01-10T07:08:32;144.97;;;12.27;;
11247;SDS011;5681;53.316;13.950;2024-01-10T07:10:58;65.43;;;10.87;;
11247;SDS011;5681;53.316;13.950;2024-01-10T07:13:24;133.13;;;11.93;;
11247;SDS011;5681;53.316;13.950;2024-01-10T07:15:51;82.63;;;9.70;;
11247;SDS011;5681;53.316;13.950;2024-01-10T07:18:19;52.33;;;9.23;;
11247;SDS011;5681;53.316;13.950;2024-01-10T07:20:45;39.67;;;7.53;;
11247;SDS011;5681;53.316;13.950;2024-01-10T07:23:12;21.93;;;7.43;;
11247;SDS011;5681;53.316;13.950;2024-01-10T07:25:38;13.27;;;7.87;;
11247;SDS011;5681;53.316;13.950;2024-01-10T07:28:05;16.00;;;8.53;;
11247;SDS011;5681;53.316;13.950;2024-01-10T07:30:31;15.63;;;9.70;;
11247;SDS011;5681;53.316;13.950;2024-01-10T07:32:58;14.87;;;7.70;;
11247;SDS011;5681;53.316;13.950;2024-01-10T07:35:25;32.93;;;9.30;;
11247;SDS011;5681;53.316;13.950;2024-01-10T07:37:58;77.67;;;10.40;;
11247;SDS011;5681;53.316;13.950;2024-01-10T07:40:24;146.90;;;12.23;;
11247;SDS011;5681;53.316;13.950;2024-01-10T07:42:51;168.50;;;13.47;;
11247;SDS011;5681;53.316;13.950;2024-01-10T07:45:17;31.50;;;9.57;;
11247;SDS011;5681;53.316;13.950;2024-01-10T07:47:44;15.77;;;8.63;;
11247;SDS011;5681;53.316;13.950;2024-01-10T07:50:31;25.47;;;9.37;;
11247;SDS011;5681;53.316;13.950;2024-01-10T07:52:57;160.00;;;14.07;;
11247;SDS011;5681;53.316;13.950;2024-01-10T07:55:27;19.70;;;10.30;;
11247;SDS011;5681;53.316;13.950;2024-01-10T07:57:55;35.13;;;11.37;;
11247;SDS011;5681;53.316;13.950;2024-01-10T08:00:22;50.37;;;12.17;;
11247;SDS011;5681;53.316;13.950;2024-01-10T08:02:48;25.77;;;10.67;;
11247;SDS011;5681;53.316;13.950;2024-01-10T08:05:15;27.47;;;11.57;;
11247;SDS011;5681;53.316;13.950;2024-01-10T08:07:43;22.30;;;9.80;;
11247;SDS011;5681;53.316;13.950;2024-01-10T08:10:09;39.03;;;11.53;;
11247;SDS011;5681;53.316;13.950;2024-01-10T08:12:36;22.17;;;12.07;;
11247;SDS011;5681;53.316;13.950;2024-01-10T08:15:03;27.57;;;11.90;;
11247;SDS011;5681;53.316;13.950;2024-01-10T08:17:31;36.77;;;11.77;;
11247;SDS011;5681;53.316;13.950;2024-01-10T08:19:57;24.90;;;12.00;;
11247;SDS011;5681;53.316;13.950;2024-01-10T08:22:25;21.93;;;11.53;;
11247;SDS011;5681;53.316;13.950;2024-01-10T08:24:52;25.23;;;12.40;;
11247;SDS011;5681;53.316;13.950;2024-01-10T08:27:20;34.77;;;13.47;;
11247;SDS011;5681;53.316;13.950;2024-01-10T08:29:47;22.47;;;12.70;;
11247;SDS011;5681;53.316;13.950;2024-01-10T08:32:14;53.17;;;15.00;;
11247;SDS011;5681;53.316;13.950;2024-01-10T08:34:42;71.73;;;14.20;;
11247;SDS011;5681;53.316;13.950;2024-01-10T08:37:10;27.70;;;13.53;;
11247;SDS011;5681;53.316;13.950;2024-01-10T08:39:36;63.20;;;16.30;;
11247;SDS011;5681;53.316;13.950;2024-01-10T08:42:04;57.73;;;16.10;;
11247;SDS011;5681;53.316;13.950;2024-01-10T08:44:30;39.83;;;14.97;;
11247;SDS011;5681;53.316;13.950;2024-01-10T08:46:57;84.23;;;16.67;;
11247;SDS011;5681;53.316;13.950;2024-01-10T08:49:23;33.80;;;13.90;;
11247;SDS011;5681;53.316;13.950;2024-01-10T08:51:50;32.97;;;14.57;;
11247;SDS011;5681;53.316;13.950;2024-01-10T08:54:18;33.33;;;13.20;;
11247;SDS011;5681;53.316;13.950;2024-01-10T08:56:44;33.93;;;12.67;;
11247;SDS011;5681;53.316;13.950;2024-01-10T08:59:12;65.53;;;15.40;;
11247;SDS011;5681;53.316;13.950;2024-01-10T09:01:39;27.80;;;13.17;;
11247;SDS011;5681;53.316;13.950;2024-01-10T09:04:05;61.97;;;19.80;;
11247;SDS011;5681;53.316;13.950;2024-01-10T09:06:32;79.63;;;15.43;;
11247;SDS011;5681;53.316;13.950;2024-01-10T09:08:58;26.70;;;12.70;;
11247;SDS011;5681;53.316;13.950;2024-01-10T09:11:26;27.83;;;12.43;;
11247;SDS011;5681;53.316;13.950;2024-01-10T09:13:52;27.10;;;12.93;;
11247;SDS011;5681;53.316;13.950;2024-01-10T09:16:20;28.27;;;12.23;;
11247;SDS011;5681;53.316;13.950;2024-01-10T09:18:46;29.53;;;13.70;;
11247;SDS011;5681;53.316;13.950;2024-01-10T09:21:14;31.30;;;11.87;;
11247;SDS011;5681;53.316;13.950;2024-01-10T09:23:41;36.37;;;13.67;;
11247;SDS011;5681;53.316;13.950;2024-01-10T09:26:07;25.57;;;13.10;;
11247;SDS011;5681;53.316;13.950;2024-01-10T09:28:34;62.63;;;16.07;;
11247;SDS011;5681;53.316;13.950;2024-01-10T09:31:01;46.93;;;13.60;;
11247;SDS011;5681;53.316;13.950;2024-01-10T09:33:28;30.13;;;14.80;;
11247;SDS011;5681;53.316;13.950;2024-01-10T09:35:55;61.63;;;21.17;;
11247;SDS011;5681;53.316;13.950;2024-01-10T09:38:21;78.40;;;16.13;;
11247;SDS011;5681;53.316;13.950;2024-01-10T09:40:47;49.70;;;17.97;;
11247;SDS011;5681;53.316;13.950;2024-01-10T09:43:14;33.43;;;16.23;;
11247;SDS011;5681;53.316;13.950;2024-01-10T09:45:42;28.90;;;14.70;;
11247;SDS011;5681;53.316;13.950;2024-01-10T09:48:11;27.80;;;14.53;;
11247;SDS011;5681;53.316;13.950;2024-01-10T09:50:40;31.33;;;13.30;;
11247;SDS011;5681;53.316;13.950;2024-01-10T09:53:07;48.90;;;13.57;;
11247;SDS011;5681;53.316;13.950;2024-01-10T09:55:39;37.87;;;15.90;;
11247;SDS011;5681;53.316;13.950;2024-01-10T09:58:05;40.47;;;15.00;;
11247;SDS011;5681;53.316;13.950;2024-01-10T10:00:34;43.03;;;14.00;;
11247;SDS011;5681;53.316;13.950;2024-01-10T10:03:00;32.63;;;15.47;;
11247;SDS011;5681;53.316;13.950;2024-01-10T10:05:28;26.13;;;13.13;;
11247;SDS011;5681;53.316;13.950;2024-01-10T10:07:56;44.47;;;14.63;;
11247;SDS011;5681;53.316;13.950;2024-01-10T10:10:23;44.17;;;14.20;;
11247;SDS011;5681;53.316;13.950;2024-01-10T10:12:50;24.60;;;12.87;;
11247;SDS011;5681;53.316;13.950;2024-01-10T10:15:18;38.90;;;13.27;;
11247;SDS011;5681;53.316;13.950;2024-01-10T10:17:47;25.77;;;12.63;;
11247;SDS011;5681;53.316;13.950;2024-01-10T10:20:14;25.07;;;12.50;;
11247;SDS011;5681;53.316;13.950;2024-01-10T10:22:46;32.17;;;12.83;;
11247;SDS011;5681;53.316;13.950;2024-01-10T10:25:26;29.40;;;12.60;;
11247;SDS011;5681;53.316;13.950;2024-01-10T10:27:53;25.23;;;11.60;;
11247;SDS011;5681;53.316;13.950;2024-01-10T10:30:19;21.27;;;11.67;;
11247;SDS011;5681;53.316;13.950;2024-01-10T10:32:45;24.80;;;10.70;;
11247;SDS011;5681;53.316;13.950;2024-01-10T10:35:12;21.30;;;10.80;;
11247;SDS011;5681;53.316;13.950;2024-01-10T10:37:38;20.13;;;11.07;;
11247;SDS011;5681;53.316;13.950;2024-01-10T10:40:07;21.10;;;11.30;;
11247;SDS011;5681;53.316;13.950;2024-01-10T10:42:34;14.13;;;9.27;;
11247;SDS011;5681;53.316;13.950;2024-01-10T10:45:02;17.13;;;10.40;;
11247;SDS011;5681;53.316;13.950;2024-01-10T10:47:29;20.53;;;10.37;;
11247;SDS011;5681;53.316;13.950;2024-01-10T10:49:57;22.43;;;11.60;;
11247;SDS011;5681;53.316;13.950;2024-01-10T10:52:25;21.17;;;11.23;;
11247;SDS011;5681;53.316;13.950;2024-01-10T10:54:52;17.60;;;10.30;;
11247;SDS011;5681;53.316;13.950;2024-01-10T10:57:21;23.17;;;10.50;;
11247;SDS011;5681;53.316;13.950;2024-01-10T10:59:48;17.43;;;10.30;;
11247;SDS011;5681;53.316;13.950;2024-01-10T11:02:18;25.93;;;10.43;;
11247;SDS011;5681;53.316;13.950;2024-01-10T11:04:48;19.37;;;11.23;;
11247;SDS011;5681;53.316;13.950;2024-01-10T11:07:14;21.90;;;11.40;;
11247;SDS011;5681;53.316;13.950;2024-01-10T11:09:41;24.30;;;11.90;;
11247;SDS011;5681;53.316;13.950;2024-01-10T11:12:15;20.83;;;11.83;;
11247;SDS011;5681;53.316;13.950;2024-01-10T11:15:05;26.60;;;14.30;;
11247;SDS011;5681;53.316;13.950;2024-01-10T11:17:52;24.67;;;14.63;;
11247;SDS011;5681;53.316;13.950;2024-01-10T11:20:34;28.37;;;12.57;;
11247;SDS011;5681;53.316;13.950;2024-01-10T11:23:14;22.00;;;11.30;;
11247;SDS011;5681;53.316;13.950;2024-01-10T11:25:52;19.30;;;10.33;;
11247;SDS011;5681;53.316;13.950;2024-01-10T11:28:20;19.50;;;10.17;;
11247;SDS011;5681;53.316;13.950;2024-01-10T11:30:48;18.80;;;10.97;;
11247;SDS011;5681;53.316;13.950;2024-01-10T11:33:20;19.50;;;10.60;;
11247;SDS011;5681;53.316;13.950;2024-01-10T11:36:06;17.77;;;10.73;;
11247;SDS011;5681;53.316;13.950;2024-01-10T11:38:39;20.03;;;11.60;;
11247;SDS011;5681;53.316;13.950;2024-01-10T11:41:07;18.30;;;11.23;;
11247;SDS011;5681;53.316;13.950;2024-01-10T11:43:37;19.73;;;11.93;;
11247;SDS011;5681;53.316;13.950;2024-01-10T11:46:05;19.77;;;11.77;;
11247;SDS011;5681;53.316;13.950;2024-01-10T11:48:32;21.53;;;12.23;;
11247;SDS011;5681;53.316;13.950;2024-01-10T11:50:58;20.30;;;11.47;;
11247;SDS011;5681;53.316;13.950;2024-01-10T11:53:38;22.67;;;12.77;;
11247;SDS011;5681;53.316;13.950;2024-01-10T11:56:11;21.03;;;12.30;;
11247;SDS011;5681;53.316;13.950;2024-01-10T11:59:01;23.90;;;13.23;;
11247;SDS011;5681;53.316;13.950;2024-01-10T12:01:29;32.27;;;14.17;;
11247;SDS011;5681;53.316;13.950;2024-01-10T12:03:56;22.13;;;12.57;;
11247;SDS011;5681;53.316;13.950;2024-01-10T12:06:25;25.43;;;14.13;;
11247;SDS011;5681;53.316;13.950;2024-01-10T12:08:51;25.27;;;14.10;;
11247;SDS011;5681;53.316;13.950;2024-01-10T12:11:18;26.13;;;13.53;;
11247;SDS011;5681;53.316;13.950;2024-01-10T12:13:44;28.07;;;14.60;;
11247;SDS011;5681;53.316;13.950;2024-01-10T12:16:13;23.50;;;13.20;;
11247;SDS011;5681;53.316;13.950;2024-01-10T12:18:39;26.87;;;13.97;;
11247;SDS011;5681;53.316;13.950;2024-01-10T12:21:06;27.63;;;14.77;;
11247;SDS011;5681;53.316;13.950;2024-01-10T12:23:33;26.33;;;14.47;;
11247;SDS011;5681;53.316;13.950;2024-01-10T12:26:01;25.07;;;14.30;;
11247;SDS011;5681;53.316;13.950;2024-01-10T12:28:28;24.03;;;14.20;;
11247;SDS011;5681;53.316;13.950;2024-01-10T12:30:54;24.60;;;14.07;;
11247;SDS011;5681;53.316;13.950;2024-01-10T12:33:23;21.87;;;13.03;;
11247;SDS011;5681;53.316;13.950;2024-01-10T12:36:02;21.37;;;11.87;;
11247;SDS011;5681;53.316;13.950;2024-01-10T12:38:30;19.97;;;12.17;;
11247;SDS011;5681;53.316;13.950;2024-01-10T12:40:56;21.23;;;11.47;;
11247;SDS011;5681;53.316;13.950;2024-01-10T12:43:23;18.90;;;11.73;;
11247;SDS011;5681;53.316;13.950;2024-01-10T12:46:01;24.40;;;11.47;;
11247;SDS011;5681;53.316;13.950;2024-01-10T12:48:30;20.73;;;11.13;;
11247;SDS011;5681;53.316;13.950;2024-01-10T12:50:58;24.07;;;11.80;;
11247;SDS011;5681;53.316;13.950;2024-01-10T12:53:25;46.93;;;16.37;;
11247;SDS011;5681;53.316;13.950;2024-01-10T12:55:53;30.57;;;16.47;;
11247;SDS011;5681;53.316;13.950;2024-01-10T12:58:19;45.97;;;17.57;;
11247;SDS011;5681;53.316;13.950;2024-01-10T13:00:46;26.63;;;15.40;;
11247;SDS011;5681;53.316;13.950;2024-01-10T13:03:13;47.73;;;15.60;;
11247;SDS011;5681;53.316;13.950;2024-01-10T13:05:40;30.63;;;15.63;;
11247;SDS011;5681;53.316;13.950;2024-01-10T13:08:07;33.57;;;14.43;;
11247;SDS011;5681;53.316;13.950;2024-01-10T13:10:33;25.23;;;13.57;;
11247;SDS011;5681;53.316;13.950;2024-01-10T13:13:00;22.23;;;11.93;;
11247;SDS011;5681;53.316;13.950;2024-01-10T13:15:26;27.40;;;9.90;;
11247;SDS011;5681;53.316;13.950;2024-01-10T13:17:53;17.40;;;9.90;;
11247;SDS011;5681;53.316;13.950;2024-01-10T13:20:20;26.03;;;9.73;;
11247;SDS011;5681;53.316;13.950;2024-01-10T13:22:48;15.93;;;10.03;;
11247;SDS011;5681;53.316;13.950;2024-01-10T13:25:15;16.80;;;9.03;;
11247;SDS011;5681;53.316;13.950;2024-01-10T13:27:42;26.07;;;10.23;;
11247;SDS011;5681;53.316;13.950;2024-01-10T13:30:08;27.67;;;8.83;;
11247;SDS011;5681;53.316;13.950;2024-01-10T13:32:36;16.43;;;9.10;;
11247;SDS011;5681;53.316;13.950;2024-01-10T13:35:03;26.93;;;9.53;;
11247;SDS011;5681;53.316;13.950;2024-01-10T13:37:30;25.60;;;10.10;;
11247;SDS011;5681;53.316;13.950;2024-01-10T13:40:00;20.43;;;9.50;;
11247;SDS011;5681;53.316;13.950;2024-01-10T13:42:26;31.67;;;11.47;;
11247;SDS011;5681;53.316;13.950;2024-01-10T13:44:52;20.67;;;9.57;;
11247;SDS011;5681;53.316;13.950;2024-01-10T13:47:19;23.43;;;9.10;;
11247;SDS011;5681;53.316;13.950;2024-01-10T13:49:46;43.33;;;9.43;;
11247;SDS011;5681;53.316;13.950;2024-01-10T13:52:13;14.77;;;8.73;;
11247;SDS011;5681;53.316;13.950;2024-01-10T13:54:39;19.63;;;8.80;;
11247;SDS011;5681;53.316;13.950;2024-01-10T13:57:07;24.23;;;8.53;;
11247;SDS011;5681;53.316;13.950;2024-01-10T13:59:33;14.40;;;8.87;;
11247;SDS011;5681;53.316;13.950;2024-01-10T14:02:00;19.37;;;8.10;;
11247;SDS011;5681;53.316;13.950;2024-01-10T14:04:26;11.20;;;7.13;;
11247;SDS011;5681;53.316;13.950;2024-01-10T14:06:53;24.83;;;6.77;;
11247;SDS011;5681;53.316;13.950;2024-01-10T14:09:19;49.10;;;7.30;;
11247;SDS011;5681;53.316;13.950;2024-01-10T14:11:45;17.47;;;8.70;;
11247;SDS011;5681;53.316;13.950;2024-01-10T14:14:15;13.07;;;7.23;;
11247;SDS011;5681;53.316;13.950;2024-01-10T14:16:43;12.90;;;7.23;;
11247;SDS011;5681;53.316;13.950;2024-01-10T14:19:09;37.90;;;8.10;;
11247;SDS011;5681;53.316;13.950;2024-01-10T14:21:36;12.73;;;7.30;;
11247;SDS011;5681;53.316;13.950;2024-01-10T14:24:02;11.73;;;6.93;;